createdAt,value
2018-08-17T00:01:40.771Z,47.50
2018-08-17T00:04:10.678Z,48.20
2018-08-17T00:06:40.582Z,47.50
2018-08-17T00:09:12.086Z,47.50
2018-08-17T00:11:42.027Z,47.50
2018-08-17T00:14:11.926Z,47.60
2018-08-17T00:16:41.806Z,47.60
2018-08-17T00:19:11.706Z,47.50
2018-08-17T00:21:41.587Z,47.60
2018-08-17T00:24:11.486Z,47.60
2018-08-17T00:26:41.387Z,47.60
2018-08-17T00:29:12.016Z,47.70
2018-08-17T00:31:42.004Z,47.70
2018-08-17T00:34:11.920Z,47.70
2018-08-17T00:36:41.807Z,47.80
2018-08-17T00:39:12.506Z,47.80
2018-08-17T00:41:42.406Z,47.80
2018-08-17T00:44:12.316Z,47.80
2018-08-17T00:46:42.215Z,47.90
2018-08-17T00:49:12.161Z,48.00
2018-08-17T00:51:42.063Z,47.90
2018-08-17T00:54:11.971Z,48.00
2018-08-17T00:56:41.887Z,48.00
2018-08-17T00:59:11.805Z,47.90
2018-08-17T01:01:41.698Z,47.90
2018-08-17T01:04:11.598Z,48.00
2018-08-17T01:06:41.483Z,48.00
2018-08-17T01:09:11.425Z,48.00
2018-08-17T01:11:41.332Z,48.10
2018-08-17T01:14:11.242Z,48.00
2018-08-17T01:16:41.138Z,48.00
2018-08-17T01:19:11.035Z,47.90
2018-08-17T01:21:40.934Z,48.10
2018-08-17T01:24:10.838Z,48.10
2018-08-17T01:26:40.742Z,48.20
2018-08-17T01:29:10.646Z,48.30
2018-08-17T01:31:40.549Z,48.30
2018-08-17T01:34:10.443Z,48.20
2018-08-17T01:36:40.342Z,48.20
2018-08-17T01:39:10.901Z,48.10
2018-08-17T01:41:40.834Z,48.10
2018-08-17T01:44:10.726Z,48.10
2018-08-17T01:46:40.627Z,48.10
2018-08-17T01:49:10.543Z,48.20
2018-08-17T01:51:40.446Z,48.20
2018-08-17T01:54:10.362Z,48.20
2018-08-17T01:56:40.254Z,48.30
2018-08-17T01:59:10.194Z,48.90
2018-08-17T02:01:40.139Z,48.40
2018-08-17T02:04:10.082Z,48.40
2018-08-17T02:06:39.990Z,48.50
2018-08-17T02:09:11.615Z,48.40
2018-08-17T02:11:41.855Z,48.50
2018-08-17T02:14:11.742Z,48.40
2018-08-17T02:16:41.639Z,48.50
2018-08-17T02:19:11.539Z,48.80
2018-08-17T02:21:41.434Z,48.40
2018-08-17T02:24:11.343Z,48.40
2018-08-17T02:26:41.251Z,48.30
2018-08-17T02:29:11.160Z,48.30
2018-08-17T02:31:41.062Z,48.40
2018-08-17T02:34:10.946Z,48.40
2018-08-17T02:36:40.839Z,48.50
2018-08-17T02:39:13.902Z,48.60
2018-08-17T02:41:43.790Z,48.60
2018-08-17T02:44:13.687Z,48.60
2018-08-17T02:46:43.573Z,48.70
2018-08-17T02:49:13.466Z,48.70
2018-08-17T02:51:43.367Z,48.70
2018-08-17T02:54:13.266Z,48.70
2018-08-17T02:56:43.155Z,48.70
2018-08-17T02:59:13.052Z,48.80
2018-08-17T03:01:42.947Z,48.80
2018-08-17T03:04:12.839Z,48.80
2018-08-17T03:06:42.732Z,48.90
2018-08-17T03:09:12.755Z,48.90
2018-08-17T03:11:42.722Z,48.90
2018-08-17T03:14:12.627Z,48.90
2018-08-17T03:16:42.533Z,48.80
2018-08-17T03:19:12.499Z,48.80
2018-08-17T03:21:42.375Z,48.90
2018-08-17T03:24:12.272Z,48.90
2018-08-17T03:26:42.230Z,49.00
2018-08-17T03:29:12.135Z,48.80
2018-08-17T03:31:42.035Z,48.90
2018-08-17T03:34:11.941Z,49.00
2018-08-17T03:36:41.845Z,49.00
2018-08-17T03:39:11.747Z,49.00
2018-08-17T03:41:41.630Z,49.00
2018-08-17T03:44:11.530Z,49.00
2018-08-17T03:46:41.406Z,49.00
2018-08-17T03:49:11.315Z,49.00
2018-08-17T03:51:41.206Z,49.60
2018-08-17T03:54:11.103Z,49.00
2018-08-17T03:56:40.993Z,49.00
2018-08-17T03:59:11.047Z,49.00
2018-08-17T04:01:40.956Z,49.10
2018-08-17T04:04:10.861Z,49.00
2018-08-17T04:06:40.746Z,49.10
2018-08-17T04:09:11.555Z,49.10
2018-08-17T04:11:41.462Z,49.00
2018-08-17T04:14:11.396Z,49.10
2018-08-17T04:16:41.247Z,49.10
2018-08-17T04:19:11.847Z,49.90
2018-08-17T04:21:41.742Z,49.30
2018-08-17T04:24:11.647Z,49.30
2018-08-17T04:26:41.530Z,49.40
2018-08-17T04:29:11.468Z,49.50
2018-08-17T04:31:41.368Z,49.30
2018-08-17T04:34:11.260Z,49.30
2018-08-17T04:36:41.166Z,49.10
2018-08-17T04:39:11.070Z,49.30
2018-08-17T04:41:40.970Z,49.40
2018-08-17T04:44:10.878Z,49.40
2018-08-17T04:46:40.786Z,49.40
2018-08-17T04:49:10.741Z,49.40
2018-08-17T04:51:40.627Z,49.50
2018-08-17T04:54:10.514Z,49.50
2018-08-17T04:56:40.432Z,49.50
2018-08-17T04:59:10.466Z,49.50
2018-08-17T05:01:40.657Z,49.40
2018-08-17T05:04:10.606Z,49.30
2018-08-17T05:06:40.659Z,49.30
2018-08-17T05:09:10.550Z,49.30
2018-08-17T05:11:40.442Z,49.30
2018-08-17T05:14:10.340Z,49.40
2018-08-17T05:16:40.211Z,49.40
2018-08-17T05:19:10.119Z,49.40
2018-08-17T05:21:40.064Z,49.40
2018-08-17T05:24:10.853Z,49.40
2018-08-17T05:26:40.726Z,49.50
2018-08-17T05:29:11.119Z,49.70
2018-08-17T05:31:41.095Z,49.80
2018-08-17T05:34:10.985Z,49.90
2018-08-17T05:36:40.834Z,50.00
2018-08-17T05:39:10.866Z,50.10
2018-08-17T05:41:40.730Z,50.20
2018-08-17T05:44:10.586Z,50.20
2018-08-17T05:46:40.475Z,50.30
2018-08-17T05:49:10.338Z,50.50
2018-08-17T05:51:40.218Z,50.70
2018-08-17T05:54:11.343Z,50.80
2018-08-17T05:56:41.387Z,50.90
2018-08-17T05:59:11.238Z,51.00
2018-08-17T06:01:41.139Z,51.70
2018-08-17T06:04:11.038Z,51.70
2018-08-17T06:06:40.944Z,51.10
2018-08-17T06:09:11.057Z,51.10
2018-08-17T06:11:40.972Z,51.10
2018-08-17T06:14:10.879Z,50.90
2018-08-17T06:16:40.779Z,51.00
2018-08-17T06:19:10.715Z,51.20
2018-08-17T06:21:40.598Z,51.30
2018-08-17T06:24:10.475Z,51.30
2018-08-17T06:26:40.363Z,51.40
2018-08-17T06:29:10.646Z,51.50
2018-08-17T06:31:40.671Z,51.50
2018-08-17T06:34:10.574Z,51.60
2018-08-17T06:36:40.467Z,51.60
2018-08-17T06:39:12.026Z,51.40
2018-08-17T06:41:41.919Z,51.30
2018-08-17T06:44:11.814Z,51.40
2018-08-17T06:46:41.711Z,51.30
2018-08-17T06:49:11.610Z,51.00
2018-08-17T06:51:41.510Z,51.00
2018-08-17T06:54:11.403Z,51.10
2018-08-17T06:56:41.294Z,51.10
2018-08-17T06:59:11.216Z,51.30
2018-08-17T07:01:41.110Z,51.20
2018-08-17T07:04:10.999Z,50.80
2018-08-17T07:06:40.890Z,50.70
2018-08-17T07:09:11.312Z,50.40
2018-08-17T07:11:41.958Z,51.20
2018-08-17T07:14:11.911Z,50.40
2018-08-17T07:16:41.852Z,50.60
2018-08-17T07:19:11.744Z,50.60
2018-08-17T07:21:41.709Z,50.60
2018-08-17T07:24:12.803Z,50.70
2018-08-17T07:26:42.711Z,51.40
2018-08-17T07:29:12.612Z,51.10
2018-08-17T07:31:42.557Z,51.10
2018-08-17T07:34:12.457Z,51.00
2018-08-17T07:36:42.394Z,51.10
2018-08-17T07:39:12.326Z,51.00
2018-08-17T07:41:42.351Z,50.90
2018-08-17T07:44:12.174Z,50.90
2018-08-17T07:46:42.063Z,50.60
2018-08-17T07:49:11.964Z,51.00
2018-08-17T07:51:41.874Z,51.10
2018-08-17T07:54:11.803Z,51.00
2018-08-17T07:56:41.692Z,50.90
2018-08-17T07:59:11.792Z,50.70
2018-08-17T08:01:41.598Z,51.00
2018-08-17T08:04:11.592Z,50.50
2018-08-17T08:06:41.427Z,50.80
2018-08-17T08:09:11.596Z,50.80
2018-08-17T08:11:42.038Z,50.80
2018-08-17T08:14:12.222Z,50.70
2018-08-17T08:16:42.095Z,50.70
2018-08-17T08:19:15.191Z,50.70
2018-08-17T08:21:47.772Z,50.50
2018-08-17T08:24:18.232Z,50.40
2018-08-17T08:26:48.599Z,50.20
2018-08-17T08:29:18.515Z,50.00
2018-08-17T08:31:48.394Z,50.20
2018-08-17T08:34:18.358Z,49.70
2018-08-17T08:36:48.306Z,50.70
2018-08-17T08:39:18.174Z,49.70
2018-08-17T08:41:48.064Z,49.60
2018-08-17T08:44:17.926Z,49.50
2018-08-17T08:46:47.842Z,49.10
2018-08-17T08:49:17.723Z,48.90
2018-08-17T08:51:47.614Z,48.90
2018-08-17T08:54:17.534Z,48.80
2018-08-17T08:56:47.457Z,48.70
2018-08-17T08:59:17.334Z,48.80
2018-08-17T09:01:53.935Z,48.70
2018-08-17T09:04:23.857Z,48.60
2018-08-17T09:06:58.979Z,48.40
2018-08-17T09:09:28.847Z,48.50
2018-08-17T09:11:58.724Z,48.40
2018-08-17T09:14:28.606Z,48.20
2018-08-17T09:16:58.488Z,48.40
2018-08-17T09:19:28.352Z,48.30
2018-08-17T09:21:58.227Z,48.10
2018-08-17T09:24:28.090Z,48.00
2018-08-17T09:26:58.007Z,48.10
2018-08-17T09:29:27.866Z,48.10
2018-08-17T09:31:57.744Z,48.00
2018-08-17T09:34:27.673Z,47.80
2018-08-17T09:36:57.562Z,48.00
2018-08-17T09:39:27.732Z,48.00
2018-08-17T09:41:57.728Z,48.00
2018-08-17T09:44:27.739Z,47.90
2018-08-17T09:46:57.623Z,47.90
2018-08-17T09:49:27.534Z,47.90
2018-08-17T09:51:57.560Z,48.20
2018-08-17T09:54:27.442Z,48.20
2018-08-17T09:57:02.563Z,48.10
2018-08-17T09:59:32.455Z,48.10
2018-08-17T10:02:09.421Z,48.20
2018-08-17T10:04:40.666Z,48.60
2018-08-17T10:07:21.188Z,48.20
2018-08-17T10:09:55.143Z,48.00
2018-08-17T10:12:25.062Z,48.00
2018-08-17T10:14:54.954Z,47.90
2018-08-17T10:17:24.911Z,48.00
2018-08-17T10:19:54.809Z,47.90
2018-08-17T10:22:24.716Z,47.70
2018-08-17T10:25:01.674Z,47.80
2018-08-17T10:27:31.554Z,48.00
2018-08-17T10:30:02.252Z,47.70
2018-08-17T10:32:36.555Z,47.50
2018-08-17T10:35:07.833Z,47.40
2018-08-17T10:37:37.755Z,47.40
2018-08-17T10:40:07.655Z,47.50
2018-08-17T10:42:37.546Z,47.00
2018-08-17T10:45:07.463Z,47.10
2018-08-17T10:47:37.468Z,47.20
2018-08-17T10:50:12.671Z,47.00
2018-08-17T10:52:42.583Z,47.00
2018-08-17T10:55:12.970Z,46.50
2018-08-17T10:57:43.131Z,46.20
2018-08-17T11:00:16.126Z,46.60
2018-08-17T11:02:46.143Z,45.50
2018-08-17T11:05:17.142Z,45.60
2018-08-17T11:07:48.326Z,45.60
2018-08-17T11:10:23.680Z,45.50
2018-08-17T11:12:53.559Z,45.60
2018-08-17T11:15:23.423Z,45.20
2018-08-17T11:17:53.384Z,45.10
2018-08-17T11:20:23.529Z,44.80
2018-08-17T11:22:53.417Z,45.20
2018-08-17T11:25:23.303Z,44.70
2018-08-17T11:27:53.246Z,44.50
2018-08-17T11:30:23.185Z,44.70
2018-08-17T11:32:53.050Z,44.80
2018-08-17T11:35:22.931Z,44.50
2018-08-17T11:37:52.795Z,44.40
2018-08-17T11:40:22.680Z,44.90
2018-08-17T11:42:52.575Z,44.40
2018-08-17T11:45:24.825Z,44.50
2018-08-17T11:47:55.467Z,44.60
2018-08-17T11:50:26.236Z,45.00
2018-08-17T11:52:58.102Z,45.00
2018-08-17T11:55:30.279Z,44.90
2018-08-17T11:58:00.214Z,44.70
2018-08-17T12:00:35.859Z,44.30
2018-08-17T12:03:07.888Z,44.80
2018-08-17T12:05:37.822Z,44.70
2018-08-17T12:08:07.751Z,44.50
2018-08-17T12:10:37.607Z,44.40
2018-08-17T12:13:12.763Z,44.30
2018-08-17T12:15:49.727Z,44.40
2018-08-17T12:18:19.616Z,44.30
2018-08-17T12:20:49.504Z,43.80
2018-08-17T12:23:19.500Z,44.00
2018-08-17T12:25:54.571Z,44.20
2018-08-17T12:28:25.549Z,44.10
2018-08-17T12:30:55.517Z,44.20
2018-08-17T12:33:25.523Z,44.30
2018-08-17T12:35:55.557Z,44.10
2018-08-17T12:38:25.542Z,43.80
2018-08-17T12:40:56.467Z,43.70
2018-08-17T12:43:31.741Z,43.40
2018-08-17T12:46:01.650Z,43.60
2018-08-17T12:48:31.608Z,43.70
2018-08-17T12:51:04.337Z,44.00
2018-08-17T12:53:34.265Z,43.40
2018-08-17T12:56:04.219Z,43.10
2018-08-17T12:58:34.128Z,43.40
2018-08-17T13:01:04.221Z,43.50
2018-08-17T13:03:34.105Z,43.30
2018-08-17T13:06:04.030Z,43.30
2018-08-17T13:08:33.935Z,43.40
2018-08-17T13:11:03.835Z,43.30
2018-08-17T13:13:33.762Z,43.30
2018-08-17T13:16:05.515Z,43.10
2018-08-17T13:18:37.676Z,43.20
2018-08-17T13:21:07.756Z,42.90
2018-08-17T13:23:37.644Z,42.80
2018-08-17T13:26:07.578Z,42.90
2018-08-17T13:28:37.497Z,43.10
2018-08-17T13:31:08.185Z,43.10
2018-08-17T13:33:38.061Z,43.20
2018-08-17T13:36:08.019Z,43.30
2018-08-17T13:38:37.880Z,43.10
2018-08-17T13:41:07.792Z,43.30
2018-08-17T13:43:37.687Z,43.50
2018-08-17T13:46:08.063Z,43.20
2018-08-17T13:48:38.190Z,43.20
2018-08-17T13:51:08.075Z,43.20
2018-08-17T13:53:38.176Z,43.30
2018-08-17T13:56:08.103Z,43.30
2018-08-17T13:58:38.380Z,43.40
2018-08-17T14:01:08.342Z,42.90
2018-08-17T14:03:38.233Z,42.80
2018-08-17T14:06:08.135Z,42.90
2018-08-17T14:08:38.199Z,42.90
2018-08-17T14:11:08.108Z,42.80
2018-08-17T14:13:38.094Z,42.50
2018-08-17T14:16:08.106Z,42.50
2018-08-17T14:18:37.999Z,42.20
2018-08-17T14:21:07.919Z,42.30
2018-08-17T14:23:37.810Z,42.00
2018-08-17T14:26:07.698Z,42.30
2018-08-17T14:28:37.622Z,42.70
2018-08-17T14:31:07.511Z,43.10
2018-08-17T14:33:37.545Z,43.00
2018-08-17T14:36:07.766Z,42.30
2018-08-17T14:38:38.142Z,42.10
2018-08-17T14:41:08.088Z,42.00
2018-08-17T14:43:38.014Z,42.10
2018-08-17T14:46:07.948Z,42.30
2018-08-17T14:48:37.867Z,42.20
2018-08-17T14:51:07.730Z,42.20
2018-08-17T14:53:37.640Z,42.30
2018-08-17T14:56:07.695Z,42.90
2018-08-17T14:58:37.691Z,43.60
2018-08-17T15:01:07.663Z,44.30
2018-08-17T15:03:37.735Z,44.30
2018-08-17T15:06:07.641Z,44.50
2018-08-17T15:08:37.549Z,44.50
2018-08-17T15:11:07.451Z,44.00
2018-08-17T15:13:37.427Z,44.20
2018-08-17T15:16:07.298Z,44.00
2018-08-17T15:18:39.194Z,44.10
2018-08-17T15:21:09.503Z,44.20
2018-08-17T15:23:39.422Z,44.30
2018-08-17T15:26:09.326Z,44.20
2018-08-17T15:28:39.341Z,44.10
2018-08-17T15:31:09.195Z,45.00
2018-08-17T15:33:39.124Z,44.40
2018-08-17T15:36:09.016Z,44.40
2018-08-17T15:38:39.184Z,44.30
2018-08-17T15:41:09.504Z,44.30
2018-08-17T15:43:40.128Z,44.50
2018-08-17T15:46:10.086Z,44.40
2018-08-17T15:48:44.258Z,44.40
2018-08-17T15:51:14.256Z,44.40
2018-08-17T15:53:44.064Z,44.70
2018-08-17T15:56:14.354Z,44.40
2018-08-17T15:58:44.409Z,44.50
2018-08-17T16:01:14.416Z,44.30
2018-08-17T16:03:44.179Z,44.50
2018-08-17T16:06:14.048Z,44.50
2018-08-17T16:08:43.922Z,44.50
2018-08-17T16:11:13.778Z,44.50
2018-08-17T16:13:43.731Z,44.40
2018-08-17T16:16:13.634Z,44.30
2018-08-17T16:18:43.479Z,44.30
2018-08-17T16:21:13.346Z,44.20
2018-08-17T16:23:43.213Z,44.10
2018-08-17T16:26:13.085Z,43.70
2018-08-17T16:28:42.959Z,43.50
2018-08-17T16:31:12.827Z,43.70
2018-08-17T16:33:42.706Z,43.70
2018-08-17T16:36:12.566Z,43.80
2018-08-17T16:38:42.443Z,43.80
2018-08-17T16:41:12.311Z,43.90
2018-08-17T16:43:46.575Z,43.90
2018-08-17T16:46:16.436Z,43.80
2018-08-17T16:48:46.339Z,44.30
2018-08-17T16:51:16.174Z,43.50
2018-08-17T16:53:46.066Z,43.50
2018-08-17T16:56:15.925Z,43.60
2018-08-17T16:58:45.827Z,43.70
2018-08-17T17:01:15.714Z,43.70
2018-08-17T17:03:45.591Z,43.80
2018-08-17T17:06:15.482Z,43.80
2018-08-17T17:08:45.378Z,43.80
2018-08-17T17:11:15.276Z,43.90
2018-08-17T17:13:45.171Z,43.80
2018-08-17T17:16:15.051Z,43.80
2018-08-17T17:18:44.947Z,43.80
2018-08-17T17:21:14.842Z,43.80
2018-08-17T17:23:51.946Z,43.90
2018-08-17T17:26:21.837Z,43.90
2018-08-17T17:28:51.738Z,44.10
2018-08-17T17:31:21.665Z,44.20
2018-08-17T17:33:51.561Z,44.30
2018-08-17T17:36:21.440Z,44.40
2018-08-17T17:38:51.333Z,44.30
2018-08-17T17:41:21.234Z,44.40
2018-08-17T17:43:51.127Z,44.40
2018-08-17T17:46:21.019Z,44.40
2018-08-17T17:48:50.906Z,44.60
2018-08-17T17:51:20.805Z,44.40
2018-08-17T17:53:50.698Z,44.50
2018-08-17T17:56:20.592Z,44.40
2018-08-17T17:58:51.037Z,44.60
2018-08-17T18:01:20.935Z,44.70
2018-08-17T18:03:50.835Z,44.50
2018-08-17T18:06:20.755Z,45.10
2018-08-17T18:08:50.660Z,44.60
2018-08-17T18:11:20.551Z,44.60
2018-08-17T18:13:50.442Z,44.60
2018-08-17T18:16:20.346Z,44.60
2018-08-17T18:18:50.259Z,44.60
2018-08-17T18:21:20.190Z,44.80
2018-08-17T18:23:58.431Z,44.70
2018-08-17T18:26:28.314Z,44.90
2018-08-17T18:28:58.215Z,44.70
2018-08-17T18:31:28.094Z,44.70
2018-08-17T18:33:58.007Z,45.10
2018-08-17T18:36:27.908Z,44.70
2018-08-17T18:38:57.810Z,44.60
2018-08-17T18:41:27.711Z,44.70
2018-08-17T18:43:57.706Z,44.60
2018-08-17T18:46:27.634Z,44.80
2018-08-17T18:48:57.526Z,45.00
2018-08-17T18:51:27.442Z,45.00
2018-08-17T18:53:57.341Z,45.00
2018-08-17T18:56:27.299Z,45.00
2018-08-17T18:58:57.430Z,44.90
2018-08-17T19:01:27.322Z,44.70
2018-08-17T19:03:57.228Z,44.70
2018-08-17T19:06:27.270Z,44.60
2018-08-17T19:08:57.210Z,44.70
2018-08-17T19:11:27.116Z,44.70
2018-08-17T19:13:57.007Z,44.70
2018-08-17T19:16:26.884Z,44.80
2018-08-17T19:18:56.782Z,44.90
2018-08-17T19:21:26.682Z,44.70
2018-08-17T19:23:56.584Z,44.40
2018-08-17T19:26:26.535Z,45.00
2018-08-17T19:28:56.466Z,44.90
2018-08-17T19:31:26.355Z,45.00
2018-08-17T19:33:56.239Z,44.90
2018-08-17T19:36:26.159Z,44.80
2018-08-17T19:38:56.085Z,45.00
2018-08-17T19:41:25.956Z,44.70
2018-08-17T19:43:55.847Z,44.70
2018-08-17T19:46:25.836Z,44.70
2018-08-17T19:48:55.625Z,44.70
2018-08-17T19:51:25.546Z,45.20
2018-08-17T19:53:55.626Z,44.80
2018-08-17T19:56:25.618Z,44.70
2018-08-17T19:58:55.531Z,44.80
2018-08-17T20:01:25.438Z,44.70
2018-08-17T20:03:55.463Z,44.70
2018-08-17T20:06:25.460Z,44.80
2018-08-17T20:08:55.483Z,44.90
2018-08-17T20:11:25.407Z,44.90
2018-08-17T20:13:55.375Z,44.90
2018-08-17T20:16:29.496Z,45.50
2018-08-17T20:19:00.967Z,44.80
2018-08-17T20:21:31.037Z,44.90
2018-08-17T20:24:00.955Z,44.90
2018-08-17T20:26:31.307Z,44.90
2018-08-17T20:29:00.893Z,45.00
2018-08-17T20:31:30.825Z,44.90
2018-08-17T20:34:00.766Z,45.00
2018-08-17T20:36:30.748Z,45.10
2018-08-17T20:39:01.498Z,45.00
2018-08-17T20:41:31.454Z,45.00
2018-08-17T20:44:02.243Z,45.10
2018-08-17T20:46:32.219Z,45.20
2018-08-17T20:49:02.147Z,45.30
2018-08-17T20:51:32.074Z,45.30
2018-08-17T20:54:03.006Z,45.40
2018-08-17T20:56:32.984Z,45.40
2018-08-17T20:59:02.906Z,45.20
2018-08-17T21:01:32.846Z,45.30
2018-08-17T21:04:02.776Z,45.50
2018-08-17T21:06:32.759Z,45.60
2018-08-17T21:09:02.688Z,45.70
2018-08-17T21:11:32.710Z,45.80
2018-08-17T21:14:02.542Z,45.70
2018-08-17T21:16:32.469Z,45.80
2018-08-17T21:19:02.411Z,45.70
2018-08-17T21:21:32.407Z,45.80
2018-08-17T21:24:02.266Z,45.80
2018-08-17T21:26:33.598Z,45.90
2018-08-17T21:29:04.360Z,46.00
2018-08-17T21:31:34.267Z,46.00
2018-08-17T21:34:04.182Z,46.10
2018-08-17T21:36:34.114Z,46.10
2018-08-17T21:39:14.159Z,46.10
2018-08-17T21:41:46.229Z,46.10
2018-08-17T21:44:17.295Z,46.20
2018-08-17T21:46:54.814Z,46.20
2018-08-17T21:49:25.906Z,46.80
2018-08-17T21:51:58.390Z,46.20
2018-08-17T21:54:31.366Z,46.30
2018-08-17T21:57:02.155Z,46.40
2018-08-17T22:00:04.864Z,46.40
2018-08-17T22:02:34.775Z,46.50
2018-08-17T22:05:04.922Z,47.30
2018-08-17T22:07:34.858Z,46.70
2018-08-17T22:10:05.118Z,46.70
2018-08-17T22:12:35.072Z,46.60
2018-08-17T22:15:05.415Z,46.60
2018-08-17T22:17:39.598Z,46.70
2018-08-17T22:20:10.786Z,47.00
2018-08-17T22:22:40.734Z,46.70
2018-08-17T22:25:15.963Z,46.80
2018-08-17T22:27:46.299Z,46.80
2018-08-17T22:30:21.842Z,46.80
2018-08-17T22:32:51.738Z,46.90
2018-08-17T22:35:21.696Z,46.90
2018-08-17T22:37:51.569Z,47.10
2018-08-17T22:40:21.454Z,47.00
2018-08-17T22:42:51.539Z,47.10
2018-08-17T22:45:21.437Z,47.00
2018-08-17T22:47:51.346Z,47.00
2018-08-17T22:50:21.244Z,47.00
2018-08-17T22:52:51.148Z,47.00
2018-08-17T22:55:21.051Z,47.10
2018-08-17T22:57:50.975Z,47.20
2018-08-17T23:00:24.400Z,47.30
2018-08-17T23:02:58.605Z,47.20
2018-08-17T23:05:29.858Z,47.20
2018-08-17T23:07:59.766Z,47.20
2018-08-17T23:10:29.750Z,47.20
2018-08-17T23:12:59.682Z,47.20
2018-08-17T23:15:29.566Z,47.10
2018-08-17T23:18:00.717Z,47.20
2018-08-17T23:20:33.517Z,47.30
2018-08-17T23:23:04.374Z,47.20
2018-08-17T23:25:34.448Z,47.20
2018-08-17T23:28:04.363Z,47.10
2018-08-17T23:30:34.258Z,47.20
2018-08-17T23:33:04.171Z,47.20
2018-08-17T23:35:34.067Z,47.30
2018-08-17T23:38:03.961Z,47.10
2018-08-17T23:40:33.880Z,47.40
2018-08-17T23:43:03.779Z,47.40
2018-08-17T23:45:33.704Z,47.40
2018-08-17T23:48:03.603Z,47.50
2018-08-17T23:50:33.502Z,47.50
2018-08-17T23:53:03.406Z,47.60
2018-08-17T23:55:33.325Z,47.60
2018-08-17T23:58:03.236Z,47.70
